DATM

Bordj Badji Mokhtar Airport

Airport
ICAO code
DATM
IATA Code
BMW
Summary
ICAO Region
AFI
ICAO Territory
Location

, Adrar

Serving
Bordj Badji Mokhtar
Elevation
1303 ft
Coordinates
21° 22' 30" N , 0° 55' 26" E
Metar
DATM 141000Z 36014KT 8000 NSC 25/03 Q1016

Runways

Designator Length Width Surface Rops
8/26 2247 0 UNK No/No

Airport map

Aerial View

SKYbrary Partners:

Safety knowledge contributed by: